Time;durP1;ratioP1;P1;durP2;ratioP2;P2;SDS_P1;SDS_P2;PMS_P1;PMS_P2;Temp;Humidity;BMP_temperature;BMP_pressure;BME280_temperature;BME280_humidity;BME280_pressure;Samples;Min_cycle;Max_cycle;Signal;HPM_P1;HPM_P2
2022/09/08 00:00:41;;;;;;;20.88;3.08;;;19.60;99.90;;;;;;4915714;29;20020;-77
2022/09/08 00:03:10;;;;;;;24.35;3.17;;;19.60;99.90;;;;;;4916613;29;20076;-77
2022/09/08 00:05:43;;;;;;;17.67;2.88;;;19.50;99.90;;;;;;4916542;29;20405;-78
2022/09/08 00:08:09;;;;;;;17.42;2.60;;;19.30;99.90;;;;;;4915186;29;20031;-78
2022/09/08 00:10:36;;;;;;;17.77;2.20;;;19.10;99.90;;;;;;4916414;29;20416;-78
2022/09/08 00:13:02;;;;;;;17.77;2.80;;;19.10;99.90;;;;;;4916647;29;20019;-78
2022/09/08 00:15:28;;;;;;;18.50;2.90;;;19.00;99.90;;;;;;4916480;29;20032;-78
2022/09/08 00:17:54;;;;;;;21.13;3.17;;;19.00;99.90;;;;;;4916530;29;20039;-78
2022/09/08 00:20:20;;;;;;;22.10;3.20;;;18.90;99.90;;;;;;4916673;29;20369;-78
2022/09/08 00:22:46;;;;;;;23.98;3.28;;;19.00;99.90;;;;;;4916172;29;20028;-78
2022/09/08 00:25:11;;;;;;;19.48;3.10;;;19.10;99.90;;;;;;4916354;29;20032;-78
2022/09/08 00:27:37;;;;;;;20.25;3.53;;;19.10;99.90;;;;;;4915944;29;20091;-77
2022/09/08 00:30:04;;;;;;;21.00;2.90;;;19.20;99.90;;;;;;4915997;29;20052;-78
2022/09/08 00:32:30;;;;;;;21.55;3.03;;;19.30;99.90;;;;;;4915940;29;20024;-77
2022/09/08 00:34:58;;;;;;;24.15;3.75;;;19.30;99.90;;;;;;4915805;29;20393;-78
2022/09/08 00:37:26;;;;;;;20.65;2.85;;;19.40;99.90;;;;;;4916010;29;20082;-78
2022/09/08 00:39:51;;;;;;;23.63;3.20;;;19.40;99.90;;;;;;4915930;29;20576;-77
2022/09/08 00:42:17;;;;;;;22.85;3.03;;;19.40;99.90;;;;;;4915756;29;20032;-78
2022/09/08 00:44:50;;;;;;;18.92;3.15;;;19.40;99.90;;;;;;4915948;29;20079;-78
2022/09/08 00:47:41;;;;;;;17.95;3.72;;;19.40;99.90;;;;;;4915951;29;20060;-78
2022/09/08 00:50:12;;;;;;;15.32;2.90;;;19.30;99.90;;;;;;4915581;29;20031;-78
2022/09/08 00:52:50;;;;;;;17.90;3.03;;;19.30;99.90;;;;;;4915531;29;20521;-78
2022/09/08 00:55:17;;;;;;;14.57;2.30;;;19.30;99.90;;;;;;4915938;29;20038;-78
2022/09/08 00:57:43;;;;;;;15.85;2.45;;;19.30;99.90;;;;;;4915698;29;20056;-77
2022/09/08 01:00:12;;;;;;;21.30;3.15;;;19.30;99.90;;;;;;4915614;29;20029;-78
2022/09/08 01:02:37;;;;;;;17.83;2.50;;;19.30;99.90;;;;;;4909534;29;20024;-78
2022/09/08 01:05:09;;;;;;;16.38;3.42;;;19.20;99.90;;;;;;4915640;29;20095;-78
2022/09/08 01:13:22;;;;;;;18.17;3.40;;;19.20;99.90;;;;;;4909667;29;20397;-78
2022/09/08 01:15:48;;;;;;;12.15;2.50;;;19.20;99.90;;;;;;4915333;29;20020;-78
2022/09/08 01:18:14;;;;;;;15.88;2.50;;;19.20;99.90;;;;;;4915168;29;20087;-77
2022/09/08 01:21:04;;;;;;;14.00;1.77;;;19.20;99.90;;;;;;4915339;29;20045;-78
2022/09/08 01:23:42;;;;;;;21.38;2.33;;;19.20;99.90;;;;;;4897462;29;20112;-78
2022/09/08 01:26:16;;;;;;;12.80;2.35;;;19.30;99.90;;;;;;4914991;29;20036;-78
2022/09/08 01:28:44;;;;;;;18.15;3.90;;;19.20;99.90;;;;;;4914998;29;20048;-78
2022/09/08 01:31:12;;;;;;;19.08;2.42;;;19.20;99.90;;;;;;4915101;29;20500;-78
2022/09/08 01:33:39;;;;;;;19.40;3.05;;;19.20;99.90;;;;;;4914827;29;20092;-78
2022/09/08 01:36:11;;;;;;;16.25;2.55;;;19.20;99.90;;;;;;4914781;29;20052;-78
2022/09/08 01:38:37;;;;;;;18.17;3.15;;;19.20;99.90;;;;;;4915005;29;20016;-78
2022/09/08 01:41:02;;;;;;;18.30;2.60;;;19.20;99.90;;;;;;4914892;29;20036;-78
2022/09/08 01:43:31;;;;;;;17.52;2.83;;;19.20;99.90;;;;;;4914801;29;20033;-78
2022/09/08 01:45:57;;;;;;;14.95;2.60;;;19.20;99.90;;;;;;4914818;29;20405;-77
2022/09/08 01:48:23;;;;;;;18.38;2.80;;;19.20;99.90;;;;;;4914683;29;20107;-78
2022/09/08 01:50:49;;;;;;;14.63;2.58;;;19.20;99.90;;;;;;4914615;29;20032;-78
2022/09/08 01:53:15;;;;;;;17.45;3.13;;;19.20;99.90;;;;;;4914600;29;20051;-77
2022/09/08 01:55:40;;;;;;;20.17;3.97;;;19.10;99.90;;;;;;4914190;29;20111;-78
2022/09/08 01:58:06;;;;;;;18.20;3.60;;;19.30;99.90;;;;;;4914486;29;20031;-78
2022/09/08 02:00:32;;;;;;;18.75;3.42;;;19.20;99.90;;;;;;4914487;29;20032;-78
2022/09/08 02:02:58;;;;;;;18.63;3.20;;;19.30;99.90;;;;;;4914842;29;20032;-78
2022/09/08 02:05:23;;;;;;;24.65;2.90;;;19.30;99.90;;;;;;4914462;29;20261;-78
2022/09/08 02:07:49;;;;;;;17.95;3.42;;;19.30;99.90;;;;;;4914369;29;20379;-78
2022/09/08 02:10:15;;;;;;;21.52;2.88;;;19.40;99.90;;;;;;4914214;29;20115;-78
2022/09/08 02:12:41;;;;;;;19.70;2.67;;;19.40;99.90;;;;;;4914197;29;20545;-78
2022/09/08 02:15:07;;;;;;;25.70;3.90;;;19.30;99.90;;;;;;4914351;29;20509;-78
2022/09/08 02:17:33;;;;;;;21.85;3.05;;;19.40;99.90;;;;;;4914116;29;20020;-78
2022/09/08 02:19:58;;;;;;;28.95;3.60;;;19.40;99.90;;;;;;4914020;29;20080;-78
2022/09/08 02:22:26;;;;;;;28.10;3.70;;;19.40;99.90;;;;;;4913959;29;20110;-78
2022/09/08 02:24:52;;;;;;;21.83;2.92;;;19.40;99.90;;;;;;4914204;29;20035;-78
2022/09/08 02:27:17;;;;;;;21.48;3.28;;;19.40;99.90;;;;;;4914281;29;20401;-78
2022/09/08 02:29:43;;;;;;;16.05;2.70;;;19.50;99.90;;;;;;4913683;29;20044;-78
2022/09/08 02:32:09;;;;;;;18.08;2.88;;;19.50;99.90;;;;;;4913996;29;20028;-78
2022/09/08 02:34:34;;;;;;;15.95;2.72;;;19.50;99.90;;;;;;4913730;29;20032;-78
2022/09/08 02:37:00;;;;;;;20.63;3.10;;;19.50;99.90;;;;;;4913741;29;20024;-77
2022/09/08 02:39:26;;;;;;;18.00;3.00;;;19.50;99.90;;;;;;4913820;29;20032;-78
2022/09/08 02:41:53;;;;;;;23.08;3.03;;;19.50;99.90;;;;;;4913570;29;20397;-78
2022/09/08 02:44:18;;;;;;;15.48;2.58;;;19.60;99.90;;;;;;4891049;29;20040;-78
2022/09/08 02:46:47;;;;;;;34.40;4.53;;;19.60;99.90;;;;;;4913759;29;20024;-77
2022/09/08 02:49:13;;;;;;;25.27;5.40;;;19.20;99.90;;;;;;4913780;29;20028;-81
2022/09/08 02:51:39;;;;;;;20.92;3.78;;;18.00;99.90;;;;;;4913678;29;20024;-82
2022/09/08 02:54:05;;;;;;;30.08;3.63;;;17.30;99.90;;;;;;4913599;29;20038;-81
2022/09/08 02:56:31;;;;;;;25.58;3.35;;;17.10;99.90;;;;;;4913399;29;20115;-78
2022/09/08 02:58:57;;;;;;;27.27;3.50;;;17.00;99.90;;;;;;4913375;29;20521;-79
2022/09/08 03:01:22;;;;;;;26.00;3.20;;;17.00;99.90;;;;;;4913541;29;20121;-79
2022/09/08 03:03:48;;;;;;;34.10;4.30;;;17.00;99.90;;;;;;4895496;29;20043;-80
2022/09/08 03:06:15;;;;;;;38.83;5.18;;;17.00;99.90;;;;;;4913419;29;20023;-79
2022/09/08 03:08:41;;;;;;;42.53;4.63;;;17.10;99.90;;;;;;4913629;29;20389;-79
2022/09/08 03:11:07;;;;;;;32.47;4.43;;;17.20;99.90;;;;;;4913364;29;20032;-79
2022/09/08 03:13:33;;;;;;;45.13;6.57;;;17.30;99.90;;;;;;4913999;29;20028;-80
2022/09/08 03:15:58;;;;;;;32.33;3.50;;;17.30;99.90;;;;;;4913075;29;20501;-81
2022/09/08 03:18:24;;;;;;;23.90;2.97;;;17.50;99.90;;;;;;4913349;29;20031;-82
2022/09/08 03:21:08;;;;;;;15.80;2.20;;;17.30;99.90;;;;;;4913401;29;20035;-83
2022/09/08 03:23:35;;;;;;;12.75;1.98;;;17.30;99.90;;;;;;4913405;29;20071;-82
2022/09/08 03:26:13;;;;;;;13.05;1.67;;;17.30;99.90;;;;;;4913243;29;20111;-83
2022/09/08 03:28:40;;;;;;;10.25;2.05;;;17.40;99.90;;;;;;4896178;29;20048;-82
2022/09/08 03:31:07;;;;;;;20.60;2.60;;;17.50;99.90;;;;;;4913391;29;20532;-82
2022/09/08 03:33:33;;;;;;;30.80;3.08;;;17.60;99.90;;;;;;4896132;29;20036;-81
2022/09/08 03:36:01;;;;;;;14.68;2.58;;;17.60;99.90;;;;;;4916219;29;20374;-80
2022/09/08 03:38:26;;;;;;;30.10;3.22;;;17.70;99.90;;;;;;4916864;29;20020;-79
2022/09/08 03:40:52;;;;;;;19.25;2.60;;;17.70;99.90;;;;;;4916866;29;20039;-80
2022/09/08 03:43:18;;;;;;;18.33;2.88;;;17.80;99.90;;;;;;4916833;29;20043;-79
2022/09/08 03:45:45;;;;;;;26.75;3.88;;;17.80;99.90;;;;;;4894811;29;20032;-79
2022/09/08 03:48:11;;;;;;;19.92;3.00;;;17.80;99.90;;;;;;4917102;29;20028;-79
2022/09/08 03:50:37;;;;;;;23.38;3.17;;;17.90;99.90;;;;;;4917149;29;20103;-79
2022/09/08 03:53:03;;;;;;;26.23;3.42;;;18.00;99.90;;;;;;4917417;29;20504;-79
2022/09/08 03:55:29;;;;;;;26.08;3.13;;;18.10;99.90;;;;;;4916809;29;20116;-79
2022/09/08 03:57:54;;;;;;;30.50;4.53;;;18.20;99.90;;;;;;4916943;29;20023;-79
2022/09/08 04:00:20;;;;;;;25.23;3.50;;;18.30;99.90;;;;;;4916487;29;20032;-78
2022/09/08 04:02:46;;;;;;;28.23;3.85;;;18.30;99.90;;;;;;4916582;29;20020;-79
2022/09/08 04:05:11;;;;;;;29.63;4.05;;;18.30;99.90;;;;;;4898921;29;20039;-79
2022/09/08 04:07:38;;;;;;;25.15;3.95;;;18.40;99.90;;;;;;4916593;29;20028;-78
2022/09/08 04:10:06;;;;;;;31.45;4.60;;;18.40;99.90;;;;;;4916627;29;20031;-78
2022/09/08 04:12:33;;;;;;;22.65;3.28;;;18.40;99.90;;;;;;4916341;29;20482;-78
2022/09/08 04:14:58;;;;;;;20.63;3.10;;;18.20;99.90;;;;;;4916629;29;20289;-78
2022/09/08 04:17:24;;;;;;;13.18;1.88;;;18.10;99.90;;;;;;4916425;29;20376;-78
2022/09/08 04:19:51;;;;;;;16.48;2.63;;;18.10;99.90;;;;;;4916056;29;20028;-78
2022/09/08 04:22:18;;;;;;;16.10;2.53;;;18.00;99.90;;;;;;4916675;29;20060;-78
2022/09/08 04:24:45;;;;;;;29.23;3.42;;;17.90;99.90;;;;;;4916038;29;20028;-78
2022/09/08 04:27:11;;;;;;;26.15;4.60;;;17.90;99.90;;;;;;4916121;29;20112;-79
2022/09/08 04:29:39;;;;;;;34.33;5.50;;;17.80;99.90;;;;;;4916275;29;20060;-81
2022/09/08 04:32:07;;;;;;;21.30;3.50;;;17.70;99.90;;;;;;4916216;29;20564;-80
2022/09/08 04:34:33;;;;;;;24.38;4.07;;;17.50;99.90;;;;;;4916137;29;20429;-81
2022/09/08 04:36:59;;;;;;;27.92;4.43;;;17.40;99.90;;;;;;4915925;29;20497;-79
2022/09/08 04:39:24;;;;;;;29.83;4.93;;;17.40;99.90;;;;;;4916308;29;20028;-78
2022/09/08 04:41:50;;;;;;;42.22;4.75;;;17.30;99.90;;;;;;4915710;29;20028;-79
2022/09/08 04:44:16;;;;;;;43.45;5.55;;;17.30;99.90;;;;;;4915836;29;20036;-80
2022/09/08 04:46:41;;;;;;;30.70;4.70;;;17.30;99.90;;;;;;4915481;29;20294;-80
2022/09/08 04:49:07;;;;;;;34.72;3.85;;;17.30;99.90;;;;;;4915857;29;20036;-81
2022/09/08 04:51:33;;;;;;;36.95;4.47;;;17.30;99.90;;;;;;4915860;29;20573;-81
2022/09/08 04:54:01;;;;;;;30.52;4.43;;;17.20;99.90;;;;;;4915727;29;20072;-82
2022/09/08 04:56:28;;;;;;;33.22;4.82;;;17.20;99.90;;;;;;4898661;29;20060;-82
2022/09/08 04:58:55;;;;;;;31.30;5.47;;;17.20;99.90;;;;;;4915486;29;20060;-83
2022/09/08 05:01:23;;;;;;;34.45;7.25;;;17.30;99.90;;;;;;4915586;29;20032;-83
2022/09/08 05:03:54;;;;;;;36.55;7.07;;;17.30;99.90;;;;;;4915270;29;20036;-83
2022/09/08 05:06:20;;;;;;;34.13;6.25;;;17.30;99.90;;;;;;4915542;29;20459;-83
2022/09/08 05:08:50;;;;;;;28.85;4.63;;;17.40;99.90;;;;;;4915487;29;20028;-83
2022/09/08 05:11:17;;;;;;;28.42;5.10;;;17.40;99.90;;;;;;4915245;29;20040;-83
2022/09/08 05:13:43;;;;;;;26.73;3.85;;;17.40;99.90;;;;;;4898416;29;20028;-83
2022/09/08 05:16:21;;;;;;;32.78;4.65;;;17.50;99.90;;;;;;4915289;29;20028;-83
2022/09/08 05:18:54;;;;;;;25.95;4.18;;;17.50;99.90;;;;;;4915240;29;20531;-83
2022/09/08 05:21:20;;;;;;;34.40;3.78;;;17.60;99.90;;;;;;4915102;29;20025;-83
2022/09/08 05:23:49;;;;;;;22.27;3.75;;;17.60;99.90;;;;;;4915102;29;20044;-83
2022/09/08 05:26:16;;;;;;;23.98;3.63;;;17.70;99.90;;;;;;4915139;29;20229;-82
2022/09/08 05:28:43;;;;;;;19.17;2.60;;;17.70;99.90;;;;;;4915041;29;20056;-82
2022/09/08 05:31:14;;;;;;;27.17;2.85;;;17.70;99.90;;;;;;4915147;29;20028;-82
2022/09/08 05:33:40;;;;;;;19.85;3.25;;;17.70;99.90;;;;;;4915264;29;20047;-83
2022/09/08 05:36:20;;;;;;;24.45;3.70;;;17.70;99.90;;;;;;4915152;29;20074;-82
2022/09/08 05:38:46;;;;;;;22.13;3.47;;;17.70;99.90;;;;;;4914900;29;20569;-82
2022/09/08 05:41:13;;;;;;;22.45;3.20;;;17.70;99.90;;;;;;4914769;29;20027;-81
2022/09/08 05:43:39;;;;;;;17.90;3.45;;;17.80;99.90;;;;;;4914455;29;20039;-81
2022/09/08 05:46:05;;;;;;;24.40;3.83;;;17.80;99.90;;;;;;4914819;29;20024;-80
2022/09/08 05:48:32;;;;;;;20.63;3.33;;;17.90;99.90;;;;;;4914632;29;20032;-81
2022/09/08 05:50:58;;;;;;;20.33;3.45;;;18.00;99.90;;;;;;4914852;29;20020;-81
2022/09/08 05:53:24;;;;;;;27.90;3.90;;;18.00;99.90;;;;;;4914570;29;20071;-80
2022/09/08 05:56:01;;;;;;;29.38;4.00;;;18.10;99.90;;;;;;4914501;29;20029;-80
2022/09/08 05:58:28;;;;;;;20.70;3.33;;;18.10;99.90;;;;;;4913815;29;20063;-80
2022/09/08 06:00:59;;;;;;;25.08;3.30;;;18.10;99.90;;;;;;4914462;29;20477;-79
2022/09/08 06:03:26;;;;;;;22.50;3.10;;;18.10;99.90;;;;;;4914366;29;20503;-79
2022/09/08 06:05:53;;;;;;;22.52;3.65;;;18.10;99.90;;;;;;4914054;29;20063;-79
2022/09/08 06:08:21;;;;;;;17.27;3.08;;;18.20;99.90;;;;;;4914421;29;20257;-79
2022/09/08 06:10:50;;;;;;;21.27;2.90;;;18.30;99.90;;;;;;4913918;29;20021;-79
2022/09/08 06:13:16;;;;;;;27.23;3.42;;;18.40;99.90;;;;;;4914608;29;20490;-79
2022/09/08 06:15:42;;;;;;;22.90;3.35;;;18.40;99.90;;;;;;4914230;29;20039;-79
2022/09/08 06:18:07;;;;;;;30.08;4.45;;;18.40;99.90;;;;;;4914244;29;20264;-79
2022/09/08 06:20:33;;;;;;;23.15;3.15;;;18.30;99.90;;;;;;4914127;29;20032;-79
2022/09/08 06:22:59;;;;;;;23.70;3.47;;;18.20;99.90;;;;;;4913834;29;20513;-79
2022/09/08 06:25:25;;;;;;;34.10;4.30;;;18.10;99.90;;;;;;4913437;29;20144;-79
2022/09/08 06:28:08;;;;;;;24.10;3.63;;;18.00;99.90;;;;;;4913769;29;20106;-79
2022/09/08 06:30:33;;;;;;;26.73;4.05;;;18.00;99.90;;;;;;4914171;29;20075;-79
2022/09/08 06:33:10;;;;;;;21.80;3.25;;;18.00;99.90;;;;;;4914084;29;20081;-79
2022/09/08 06:35:42;;;;;;;27.00;4.25;;;18.00;99.90;;;;;;4913865;29;20024;-79
2022/09/08 06:38:35;;;;;;;29.58;4.20;;;18.00;99.90;;;;;;4909577;29;20573;-79
2022/09/08 06:41:24;;;;;;;28.05;3.50;;;18.10;99.90;;;;;;4904071;29;20032;-79
2022/09/08 06:44:05;;;;;;;31.40;3.95;;;18.10;99.90;;;;;;4913550;29;20405;-79
2022/09/08 06:46:35;;;;;;;30.73;3.63;;;18.20;99.90;;;;;;4913402;29;20039;-79
2022/09/08 06:49:00;;;;;;;25.88;3.50;;;18.20;99.90;;;;;;4913658;29;20418;-79
2022/09/08 06:51:37;;;;;;;41.38;5.75;;;18.20;99.90;;;;;;4913667;29;20119;-79
2022/09/08 06:54:08;;;;;;;31.10;4.00;;;18.20;99.90;;;;;;4909786;29;20060;-79
2022/09/08 06:57:25;;;;;;;28.70;4.72;;;18.30;99.90;;;;;;4913257;29;20485;-79
2022/09/08 06:59:53;;;;;;;35.30;4.38;;;18.40;99.90;;;;;;4873709;29;20050;-79
2022/09/08 07:02:37;;;;;;;26.10;4.10;;;18.50;99.90;;;;;;4913532;29;20024;-79
2022/09/08 07:05:34;;;;;;;30.50;4.45;;;18.60;99.90;;;;;;4913561;29;20032;-80
2022/09/08 07:08:05;;;;;;;26.15;3.58;;;18.60;99.90;;;;;;4912636;29;20027;-79
2022/09/08 07:10:41;;;;;;;20.60;4.20;;;18.60;99.90;;;;;;4913132;29;20032;-79
2022/09/08 07:13:22;;;;;;;26.90;4.38;;;18.70;99.90;;;;;;4913144;29;20412;-79
2022/09/08 07:16:01;;;;;;;30.33;4.00;;;18.80;99.90;;;;;;4913240;29;20036;-79
2022/09/08 07:18:47;;;;;;;25.83;3.58;;;18.90;99.90;;;;;;4907320;29;20046;-79
2022/09/08 07:21:38;;;;;;;34.08;4.38;;;19.10;99.90;;;;;;4909592;29;20024;-79
2022/09/08 07:24:08;;;;;;;22.52;4.78;;;19.10;99.90;;;;;;4913322;29;20127;-79
2022/09/08 07:26:46;;;;;;;29.40;4.15;;;19.20;99.90;;;;;;4912912;29;20024;-79
2022/09/08 07:29:21;;;;;;;21.00;4.00;;;19.20;99.90;;;;;;4907767;29;20052;-79
2022/09/08 07:31:50;;;;;;;18.35;2.45;;;19.20;99.90;;;;;;4913102;29;20103;-80
2022/09/08 07:34:23;;;;;;;22.40;3.80;;;19.20;99.90;;;;;;4913154;29;20040;-79
2022/09/08 07:37:16;;;;;;;18.88;2.85;;;19.30;99.90;;;;;;4912981;29;20017;-80
2022/09/08 07:39:55;;;;;;;16.80;2.70;;;19.30;99.90;;;;;;4913024;29;20120;-79
2022/09/08 07:42:21;;;;;;;16.35;3.65;;;19.30;99.90;;;;;;4907554;29;20548;-80
2022/09/08 07:44:53;;;;;;;22.38;3.05;;;19.40;99.90;;;;;;4913006;29;20048;-79
2022/09/08 07:47:36;;;;;;;21.13;3.25;;;19.50;99.90;;;;;;4908066;29;20469;-79
2022/09/08 07:50:04;;;;;;;22.45;3.03;;;19.60;99.90;;;;;;4912914;29;20056;-80
2022/09/08 07:52:45;;;;;;;19.67;3.40;;;19.70;99.90;;;;;;4913103;29;21191;-79
2022/09/08 07:55:41;;;;;;;17.70;3.40;;;19.80;99.90;;;;;;4891326;29;20040;-80
2022/09/08 07:58:51;;;;;;;21.52;3.35;;;19.90;99.90;;;;;;4908397;29;20024;-80
2022/09/08 08:01:20;;;;;;;17.70;3.22;;;20.00;99.90;;;;;;4819750;29;20075;-80
2022/09/08 08:04:10;;;;;;;26.60;3.47;;;20.20;99.90;;;;;;4820698;29;20501;-80
2022/09/08 08:06:41;;;;;;;19.15;3.00;;;20.30;99.90;;;;;;4878769;29;20079;-80
2022/09/08 08:09:29;;;;;;;19.88;3.78;;;20.40;99.90;;;;;;4912861;29;20028;-80
2022/09/08 08:12:05;;;;;;;25.30;3.47;;;20.70;99.90;;;;;;4906519;29;20027;-80
2022/09/08 08:14:41;;;;;;;19.50;3.03;;;20.80;99.90;;;;;;4909763;29;20024;-80
2022/09/08 08:17:29;;;;;;;16.20;3.13;;;21.00;99.90;;;;;;4912684;29;20370;-79
2022/09/08 08:20:23;;;;;;;19.20;3.10;;;20.90;99.90;;;;;;4912468;29;20027;-79
2022/09/08 08:23:09;;;;;;;16.75;2.65;;;20.30;99.90;;;;;;4916216;29;20103;-80
2022/09/08 08:25:44;;;;;;;16.77;3.05;;;20.10;99.90;;;;;;4915799;29;20034;-79
2022/09/08 08:28:17;;;;;;;17.95;2.50;;;20.10;99.90;;;;;;4915792;29;20111;-78
2022/09/08 08:31:00;;;;;;;37.10;4.00;;;19.70;99.90;;;;;;4915940;29;20076;-85
2022/09/08 08:33:32;;;;;;;18.57;2.60;;;18.90;99.90;;;;;;4915133;29;20025;-87
2022/09/08 08:36:06;;;;;;;23.08;3.40;;;18.00;99.90;;;;;;4895980;29;20024;-84
2022/09/08 08:38:49;;;;;;;30.85;5.22;;;17.80;99.90;;;;;;4914394;29;20024;-85
2022/09/08 08:41:35;;;;;;;35.53;5.68;;;17.90;99.90;;;;;;4915431;29;20032;-88
2022/09/08 08:44:24;;;;;;;28.02;3.92;;;18.00;99.90;;;;;;4910187;29;20473;-86
2022/09/08 08:47:22;;;;;;;14.40;2.75;;;17.80;99.90;;;;;;4914982;29;20568;-87
2022/09/08 08:50:12;;;;;;;10.77;1.70;;;17.80;99.90;;;;;;4893247;29;20071;-88
2022/09/08 08:53:01;;;;;;;12.05;1.55;;;17.80;99.90;;;;;;4913213;29;20020;-89
2022/09/08 08:55:59;;;;;;;8.40;1.60;;;17.90;99.90;;;;;;4890508;29;20032;-90
2022/09/08 08:58:39;;;;;;;11.15;1.50;;;18.10;99.90;;;;;;4913279;29;20024;-89
2022/09/08 09:01:50;;;;;;;11.23;1.95;;;18.10;99.90;;;;;;4915739;29;20028;-89
2022/09/08 09:04:57;;;;;;;12.80;1.63;;;18.20;99.90;;;;;;4914775;29;20040;-88
2022/09/08 09:07:57;;;;;;;6.43;1.25;;;18.40;99.90;;;;;;4913858;29;20516;-88
2022/09/08 09:10:39;;;;;;;8.52;1.17;;;18.60;99.90;;;;;;4910089;29;20074;-87
2022/09/08 09:13:07;;;;;;;8.93;1.27;;;18.90;99.90;;;;;;4915446;29;20035;-86
2022/09/08 09:15:48;;;;;;;11.93;1.50;;;19.00;99.90;;;;;;4896437;29;20075;-86
2022/09/08 09:18:45;;;;;;;11.98;1.63;;;19.20;99.90;;;;;;4915170;29;20103;-86
2022/09/08 09:21:36;;;;;;;25.55;2.95;;;19.30;99.90;;;;;;4915081;29;20035;-85
2022/09/08 09:24:20;;;;;;;14.18;2.67;;;19.60;99.90;;;;;;4915281;29;20449;-84
2022/09/08 09:26:49;;;;;;;13.03;2.10;;;19.80;99.90;;;;;;4914581;29;20024;-85
2022/09/08 09:29:20;;;;;;;14.55;2.25;;;20.00;99.90;;;;;;4915160;29;20288;-85
2022/09/08 09:32:10;;;;;;;15.98;2.60;;;20.20;99.90;;;;;;4897275;29;20381;-84
2022/09/08 09:34:50;;;;;;;17.60;2.53;;;20.30;99.90;;;;;;4894864;29;20047;-84
2022/09/08 09:37:25;;;;;;;18.83;2.92;;;20.30;99.90;;;;;;4895371;29;20043;-84
2022/09/08 09:40:30;;;;;;;14.02;2.60;;;20.10;99.90;;;;;;4914316;29;20508;-84
2022/09/08 09:43:42;;;;;;;13.57;3.30;;;19.80;99.90;;;;;;4904943;29;20398;-84
2022/09/08 09:46:20;;;;;;;16.65;3.25;;;19.50;99.90;;;;;;4881706;29;20048;-83
2022/09/08 09:49:01;;;;;;;16.80;3.28;;;19.70;99.90;;;;;;4914745;29;20052;-84
2022/09/08 09:51:47;;;;;;;17.55;2.40;;;20.00;99.90;;;;;;4909420;29;20233;-83
2022/09/08 09:54:50;;;;;;;15.32;2.53;;;20.10;99.90;;;;;;4911403;29;20058;-83
2022/09/08 09:57:33;;;;;;;15.05;2.45;;;20.30;99.90;;;;;;4914428;29;20043;-83
2022/09/08 10:00:08;;;;;;;11.68;2.10;;;20.40;99.90;;;;;;4914722;29;20659;-83
2022/09/08 10:02:52;;;;;;;13.98;2.00;;;20.40;99.90;;;;;;4912064;29;20079;-83
2022/09/08 10:05:46;;;;;;;14.45;2.22;;;20.50;99.90;;;;;;4914209;29;20417;-83
2022/09/08 10:08:34;;;;;;;11.07;2.10;;;20.50;99.90;;;;;;4911314;29;20067;-83
2022/09/08 10:11:36;;;;;;;15.20;2.67;;;20.50;99.90;;;;;;4914007;29;20280;-83
2022/09/08 10:14:20;;;;;;;16.90;2.60;;;20.50;99.90;;;;;;4911662;29;20035;-83
2022/09/08 10:17:01;;;;;;;12.93;2.28;;;20.60;99.90;;;;;;4913780;29;20024;-83
2022/09/08 10:19:51;;;;;;;14.38;2.92;;;20.70;99.90;;;;;;4914045;29;20064;-83
2022/09/08 10:23:05;;;;;;;15.68;2.00;;;20.80;99.90;;;;;;4896871;29;20485;-83
2022/09/08 10:25:51;;;;;;;13.00;2.25;;;20.80;99.90;;;;;;4905189;29;20513;-83
2022/09/08 10:28:42;;;;;;;19.05;2.67;;;20.80;99.90;;;;;;4913942;29;20044;-83
2022/09/08 10:31:49;;;;;;;17.45;2.65;;;20.70;99.90;;;;;;4910166;29;20474;-83
2022/09/08 10:34:14;;;;;;;21.05;3.00;;;20.90;99.90;;;;;;4884292;29;20036;-83
2022/09/08 10:37:22;;;;;;;21.13;3.70;;;21.20;99.90;;;;;;4914032;29;20072;-83
2022/09/08 10:40:06;;;;;;;15.32;3.03;;;21.30;99.90;;;;;;4864308;29;20123;-83
2022/09/08 10:42:45;;;;;;;16.23;2.17;;;21.60;99.90;;;;;;4908891;29;20028;-83
2022/09/08 10:45:32;;;;;;;18.50;3.30;;;21.90;99.90;;;;;;4895461;29;20043;-82
2022/09/08 10:48:16;;;;;;;19.23;3.20;;;21.80;99.90;;;;;;4913846;29;20024;-82
2022/09/08 10:51:10;;;;;;;22.17;3.47;;;21.60;99.90;;;;;;4908545;29;20036;-82
2022/09/08 10:54:09;;;;;;;17.42;2.38;;;20.50;99.90;;;;;;4913666;29;20029;-82
2022/09/08 10:56:37;;;;;;;20.50;3.33;;;19.80;99.90;;;;;;4909151;29;20337;-82
2022/09/08 10:59:42;;;;;;;11.73;2.33;;;19.30;99.90;;;;;;4888869;29;20462;-83
2022/09/08 11:02:13;;;;;;;14.85;2.75;;;19.10;99.90;;;;;;4912556;29;20122;-84
2022/09/08 11:04:57;;;;;;;17.38;2.65;;;18.90;99.90;;;;;;4908004;29;20167;-86
2022/09/08 11:07:34;;;;;;;19.88;2.92;;;18.90;99.90;;;;;;4913262;29;20043;-88
2022/09/08 11:10:38;;;;;;;25.20;3.67;;;19.10;99.90;;;;;;4892525;29;20028;-88
2022/09/08 11:13:37;;;;;;;29.15;5.80;;;19.30;99.90;;;;;;4896375;29;20378;-88
2022/09/08 11:16:40;;;;;;;20.58;5.43;;;19.70;99.90;;;;;;4913098;29;20035;-87
2022/09/08 11:19:26;;;;;;;23.67;3.33;;;20.40;99.90;;;;;;4911337;29;20032;-84
2022/09/08 11:22:09;;;;;;;27.77;3.92;;;20.70;99.90;;;;;;4907327;29;20020;-84
2022/09/08 11:24:58;;;;;;;18.77;3.17;;;20.80;99.90;;;;;;4908731;29;20039;-83
2022/09/08 11:27:27;;;;;;;18.83;2.83;;;20.70;99.90;;;;;;4913278;29;20095;-82
2022/09/08 11:30:01;;;;;;;16.65;3.15;;;20.70;99.90;;;;;;4912914;29;20494;-83
2022/09/08 11:32:38;;;;;;;18.00;3.08;;;20.70;99.90;;;;;;4913340;29;20408;-82
2022/09/08 11:35:30;;;;;;;17.45;2.53;;;20.70;99.90;;;;;;4912963;29;20072;-83
2022/09/08 11:38:04;;;;;;;19.40;3.08;;;20.70;99.90;;;;;;4913189;29;20465;-83
2022/09/08 11:40:42;;;;;;;21.73;2.58;;;20.90;99.90;;;;;;4911191;29;20028;-83
2022/09/08 11:43:36;;;;;;;16.58;2.75;;;21.20;99.90;;;;;;4912846;29;20024;-82
2022/09/08 11:46:34;;;;;;;18.02;3.08;;;21.20;99.90;;;;;;4908164;29;20039;-83
2022/09/08 11:49:26;;;;;;;15.27;2.80;;;21.20;99.90;;;;;;4913330;29;20443;-83
2022/09/08 11:52:17;;;;;;;23.42;3.17;;;21.30;99.90;;;;;;4909994;29;20076;-83
2022/09/08 11:55:05;;;;;;;17.02;2.65;;;21.40;99.90;;;;;;4911667;29;20040;-82
2022/09/08 11:57:55;;;;;;;15.98;2.70;;;21.60;99.90;;;;;;4912985;29;20437;-82
2022/09/08 12:00:32;;;;;;;18.70;2.90;;;22.00;99.90;;;;;;4916513;29;20039;-82
2022/09/08 12:03:27;;;;;;;19.65;3.38;;;22.10;99.90;;;;;;4909273;29;20250;-82
2022/09/08 12:06:06;;;;;;;19.33;2.88;;;22.10;99.90;;;;;;4916105;29;20423;-82
2022/09/08 12:09:03;;;;;;;20.05;2.30;;;22.10;99.90;;;;;;4916534;29;20028;-82
2022/09/08 12:11:54;;;;;;;12.32;2.50;;;22.10;99.90;;;;;;4914734;29;20082;-83
2022/09/08 12:14:35;;;;;;;23.33;3.53;;;22.00;99.90;;;;;;4916469;29;20118;-82
2022/09/08 12:17:33;;;;;;;13.45;2.33;;;21.90;99.90;;;;;;4910742;29;20024;-82
2022/09/08 12:20:15;;;;;;;19.42;2.92;;;22.10;99.90;;;;;;4916458;29;20024;-82
2022/09/08 12:22:56;;;;;;;19.27;2.55;;;22.10;99.90;;;;;;4916275;29;20016;-82
2022/09/08 12:25:50;;;;;;;15.38;2.63;;;22.20;99.90;;;;;;4911080;29;20040;-82
2022/09/08 12:28:37;;;;;;;16.13;2.97;;;22.20;99.90;;;;;;4911973;29;20075;-82
2022/09/08 12:31:28;;;;;;;22.08;2.97;;;22.10;99.90;;;;;;4911081;29;20025;-82
2022/09/08 12:34:18;;;;;;;26.40;2.80;;;22.30;99.90;;;;;;4913974;29;20024;-83
2022/09/08 12:36:53;;;;;;;18.60;3.67;;;22.50;99.90;;;;;;4916163;29;20024;-83
2022/09/08 12:39:34;;;;;;;16.17;3.10;;;22.50;99.90;;;;;;4899036;29;20028;-83
2022/09/08 12:42:24;;;;;;;14.75;2.45;;;22.00;99.90;;;;;;4914465;29;20075;-82
2022/09/08 12:44:59;;;;;;;15.73;2.90;;;22.00;99.90;;;;;;4915704;29;20032;-82
2022/09/08 12:47:46;;;;;;;12.45;2.20;;;22.10;99.90;;;;;;4908663;29;20028;-82
2022/09/08 12:50:37;;;;;;;12.60;2.25;;;22.20;99.90;;;;;;4915573;29;20107;-82
2022/09/08 12:53:12;;;;;;;13.82;2.47;;;22.40;99.90;;;;;;4910793;29;20036;-83
2022/09/08 12:55:41;;;;;;;11.38;2.03;;;22.30;99.90;;;;;;4915332;29;20032;-83
2022/09/08 12:58:07;;;;;;;11.80;2.05;;;22.30;99.90;;;;;;4916076;29;20032;-82
2022/09/08 13:00:40;;;;;;;19.83;2.85;;;22.50;99.90;;;;;;4916190;29;20421;-83
2022/09/08 13:03:23;;;;;;;17.33;2.80;;;22.40;99.90;;;;;;4910078;29;20045;-83
2022/09/08 13:06:04;;;;;;;16.73;2.70;;;22.40;99.90;;;;;;4915453;29;20050;-83
2022/09/08 13:09:01;;;;;;;19.42;2.90;;;22.30;99.90;;;;;;4915566;29;20028;-82
2022/09/08 13:11:46;;;;;;;14.90;2.60;;;22.60;99.90;;;;;;4914163;29;20125;-82
2022/09/08 13:14:13;;;;;;;19.52;3.47;;;22.60;99.90;;;;;;4915473;29;20393;-82
2022/09/08 13:17:13;;;;;;;11.27;2.30;;;22.60;99.90;;;;;;4915477;29;20143;-82
2022/09/08 13:20:01;;;;;;;12.07;2.28;;;22.50;99.90;;;;;;4915370;29;20024;-83
2022/09/08 13:22:36;;;;;;;16.55;2.60;;;22.50;99.90;;;;;;4915455;29;20401;-83
2022/09/08 13:25:24;;;;;;;13.55;2.58;;;22.60;99.90;;;;;;4914504;29;20497;-82
2022/09/08 13:28:44;;;;;;;13.20;2.67;;;22.60;99.90;;;;;;4914667;29;20024;-83